sensor_id;sensor_type;location;lat;lon;timestamp;pressure;altitude;pressure_sealevel;temperature;humidity
17936;BME280;9093;52.062;4.508;2022-12-20T00:02:30;101520.91;;;10.46;81.91
17936;BME280;9093;52.062;4.508;2022-12-20T00:05:11;101515.56;;;10.46;81.77
17936;BME280;9093;52.062;4.508;2022-12-20T00:07:51;101514.69;;;10.46;81.82
17936;BME280;9093;52.062;4.508;2022-12-20T00:10:36;101517.31;;;10.47;81.86
17936;BME280;9093;52.062;4.508;2022-12-20T00:13:16;101506.47;;;10.51;81.68
17936;BME280;9093;52.062;4.508;2022-12-20T00:16:04;101514.44;;;10.52;81.81
17936;BME280;9093;52.062;4.508;2022-12-20T00:18:46;101518.78;;;10.55;81.51
17936;BME280;9093;52.062;4.508;2022-12-20T00:21:27;101509.84;;;10.56;81.61
17936;BME280;9093;52.062;4.508;2022-12-20T00:24:09;101514.31;;;10.55;81.58
17936;BME280;9093;52.062;4.508;2022-12-20T00:26:49;101517.03;;;10.54;81.58
17936;BME280;9093;52.062;4.508;2022-12-20T00:29:30;101499.28;;;10.53;81.70
17936;BME280;9093;52.062;4.508;2022-12-20T00:32:10;101506.38;;;10.54;81.51
17936;BME280;9093;52.062;4.508;2022-12-20T00:34:50;101506.38;;;10.54;81.45
17936;BME280;9093;52.062;4.508;2022-12-20T00:37:30;101500.09;;;10.55;81.46
17936;BME280;9093;52.062;4.508;2022-12-20T00:40:11;101497.41;;;10.55;81.17
17936;BME280;9093;52.062;4.508;2022-12-20T00:42:51;101496.56;;;10.54;81.35
17936;BME280;9093;52.062;4.508;2022-12-20T00:45:31;101488.59;;;10.53;81.28
17936;BME280;9093;52.062;4.508;2022-12-20T00:48:12;101480.59;;;10.53;81.22
17936;BME280;9093;52.062;4.508;2022-12-20T00:50:57;101469.03;;;10.52;81.09
17936;BME280;9093;52.062;4.508;2022-12-20T00:53:39;101471.78;;;10.51;81.14
17936;BME280;9093;52.062;4.508;2022-12-20T00:56:19;101464.69;;;10.49;81.00
17936;BME280;9093;52.062;4.508;2022-12-20T00:58:59;101459.44;;;10.48;81.04
17936;BME280;9093;52.062;4.508;2022-12-20T01:01:40;101459.50;;;10.46;81.07
17936;BME280;9093;52.062;4.508;2022-12-20T01:04:20;101456.00;;;10.44;80.98
17936;BME280;9093;52.062;4.508;2022-12-20T01:07:01;101449.91;;;10.42;81.04
17936;BME280;9093;52.062;4.508;2022-12-20T01:09:41;101446.41;;;10.40;81.26
17936;BME280;9093;52.062;4.508;2022-12-20T01:12:21;101450.00;;;10.39;81.13
17936;BME280;9093;52.062;4.508;2022-12-20T01:15:03;101464.28;;;10.38;81.25
17936;BME280;9093;52.062;4.508;2022-12-20T01:17:43;101452.75;;;10.38;81.29
17936;BME280;9093;52.062;4.508;2022-12-20T01:20:23;101453.72;;;10.37;81.36
17936;BME280;9093;52.062;4.508;2022-12-20T01:23:05;101449.22;;;10.37;81.32
17936;BME280;9093;52.062;4.508;2022-12-20T01:25:45;101437.69;;;10.37;81.29
17936;BME280;9093;52.062;4.508;2022-12-20T01:28:27;101439.50;;;10.36;81.27
17936;BME280;9093;52.062;4.508;2022-12-20T01:31:09;101430.53;;;10.37;81.38
17936;BME280;9093;52.062;4.508;2022-12-20T01:33:50;101420.06;;;10.33;81.27
17936;BME280;9093;52.062;4.508;2022-12-20T01:36:33;101424.41;;;10.35;81.34
17936;BME280;9093;52.062;4.508;2022-12-20T01:39:15;101416.41;;;10.35;81.46
17936;BME280;9093;52.062;4.508;2022-12-20T01:41:55;101409.16;;;10.37;81.41
17936;BME280;9093;52.062;4.508;2022-12-20T01:47:22;101403.06;;;10.35;81.26
17936;BME280;9093;52.062;4.508;2022-12-20T01:50:07;101403.97;;;10.34;81.42
17936;BME280;9093;52.062;4.508;2022-12-20T01:52:48;101403.81;;;10.37;81.45
17936;BME280;9093;52.062;4.508;2022-12-20T01:55:29;101411.78;;;10.39;81.52
17936;BME280;9093;52.062;4.508;2022-12-20T01:58:11;101398.44;;;10.39;81.49
17936;BME280;9093;52.062;4.508;2022-12-20T02:00:51;101398.50;;;10.37;81.45
17936;BME280;9093;52.062;4.508;2022-12-20T02:03:32;101400.22;;;10.38;81.64
17936;BME280;9093;52.062;4.508;2022-12-20T02:06:15;101403.72;;;10.40;81.48
17936;BME280;9093;52.062;4.508;2022-12-20T02:09:00;101408.19;;;10.40;81.51
17936;BME280;9093;52.062;4.508;2022-12-20T02:15:18;101423.19;;;10.42;81.53
17936;BME280;9093;52.062;4.508;2022-12-20T02:18:05;101420.44;;;10.44;81.57
17936;BME280;9093;52.062;4.508;2022-12-20T02:23:56;101420.53;;;10.42;81.60
17936;BME280;9093;52.062;4.508;2022-12-20T02:30:15;101413.47;;;10.41;81.46
17936;BME280;9093;52.062;4.508;2022-12-20T02:33:07;101399.19;;;10.42;81.59
17936;BME280;9093;52.062;4.508;2022-12-20T02:35:50;101407.03;;;10.45;81.53
17936;BME280;9093;52.062;4.508;2022-12-20T02:38:35;101407.03;;;10.45;81.46
17936;BME280;9093;52.062;4.508;2022-12-20T02:41:21;101407.03;;;10.45;81.30
17936;BME280;9093;52.062;4.508;2022-12-20T02:44:07;101401.84;;;10.42;81.57
17936;BME280;9093;52.062;4.508;2022-12-20T02:47:15;101391.16;;;10.42;81.55
17936;BME280;9093;52.062;4.508;2022-12-20T02:49:58;101395.69;;;10.40;81.50
17936;BME280;9093;52.062;4.508;2022-12-20T02:52:40;101378.75;;;10.41;81.57
17936;BME280;9093;52.062;4.508;2022-12-20T02:55:25;101384.03;;;10.43;81.51
17936;BME280;9093;52.062;4.508;2022-12-20T02:58:33;101382.19;;;10.43;81.39
17936;BME280;9093;52.062;4.508;2022-12-20T03:01:20;101374.13;;;10.45;81.46
17936;BME280;9093;52.062;4.508;2022-12-20T03:04:02;101376.75;;;10.46;81.62
17936;BME280;9093;52.062;4.508;2022-12-20T03:07:02;101383.94;;;10.44;81.45
17936;BME280;9093;52.062;4.508;2022-12-20T03:09:44;101382.94;;;10.47;81.50
17936;BME280;9093;52.062;4.508;2022-12-20T03:12:24;101386.47;;;10.47;81.49
17936;BME280;9093;52.062;4.508;2022-12-20T03:15:12;101387.25;;;10.49;81.48
17936;BME280;9093;52.062;4.508;2022-12-20T03:17:52;101385.28;;;10.55;81.35
17936;BME280;9093;52.062;4.508;2022-12-20T03:20:33;101392.25;;;10.57;81.41
17936;BME280;9093;52.062;4.508;2022-12-20T03:23:13;101376.13;;;10.60;81.33
17936;BME280;9093;52.062;4.508;2022-12-20T03:25:54;101395.53;;;10.64;81.51
17936;BME280;9093;52.062;4.508;2022-12-20T03:28:34;101382.97;;;10.66;81.41
17936;BME280;9093;52.062;4.508;2022-12-20T03:31:14;101369.56;;;10.67;81.20
17936;BME280;9093;52.062;4.508;2022-12-20T03:33:55;101374.81;;;10.69;81.28
17936;BME280;9093;52.062;4.508;2022-12-20T03:36:35;101373.88;;;10.70;81.25
17936;BME280;9093;52.062;4.508;2022-12-20T03:39:15;101377.19;;;10.75;81.34
17936;BME280;9093;52.062;4.508;2022-12-20T03:41:56;101371.81;;;10.76;81.16
17936;BME280;9093;52.062;4.508;2022-12-20T03:44:36;101378.94;;;10.76;81.14
17936;BME280;9093;52.062;4.508;2022-12-20T03:47:16;101368.25;;;10.76;81.15
17936;BME280;9093;52.062;4.508;2022-12-20T03:49:57;101370.94;;;10.76;81.14
17936;BME280;9093;52.062;4.508;2022-12-20T03:52:37;101386.03;;;10.77;81.17
17936;BME280;9093;52.062;4.508;2022-12-20T03:55:17;101381.63;;;10.76;81.25
17936;BME280;9093;52.062;4.508;2022-12-20T03:57:58;101385.91;;;10.80;81.24
17936;BME280;9093;52.062;4.508;2022-12-20T04:00:38;101376.94;;;10.81;81.11
17936;BME280;9093;52.062;4.508;2022-12-20T04:03:18;101382.94;;;10.86;81.05
17936;BME280;9093;52.062;4.508;2022-12-20T04:05:59;101376.66;;;10.87;81.23
17936;BME280;9093;52.062;4.508;2022-12-20T04:08:39;101369.44;;;10.89;81.22
17936;BME280;9093;52.062;4.508;2022-12-20T04:11:19;101366.69;;;10.91;81.14
17936;BME280;9093;52.062;4.508;2022-12-20T04:13:59;101372.91;;;10.91;81.11
17936;BME280;9093;52.062;4.508;2022-12-20T04:16:40;101353.28;;;10.92;81.21
17936;BME280;9093;52.062;4.508;2022-12-20T04:19:20;101353.28;;;10.92;81.30
17936;BME280;9093;52.062;4.508;2022-12-20T04:22:00;101350.59;;;10.92;81.33
17936;BME280;9093;52.062;4.508;2022-12-20T04:24:41;101368.38;;;10.93;81.27
17936;BME280;9093;52.062;4.508;2022-12-20T04:27:21;101353.28;;;10.92;81.28
17936;BME280;9093;52.062;4.508;2022-12-20T04:30:02;101370.22;;;10.91;81.24
17936;BME280;9093;52.062;4.508;2022-12-20T04:32:42;101354.19;;;10.91;81.24
17936;BME280;9093;52.062;4.508;2022-12-20T04:35:22;101359.53;;;10.91;81.31
17936;BME280;9093;52.062;4.508;2022-12-20T04:38:03;101358.75;;;10.89;81.41
17936;BME280;9093;52.062;4.508;2022-12-20T04:40:43;101348.06;;;10.89;81.44
17936;BME280;9093;52.062;4.508;2022-12-20T04:43:24;101344.44;;;10.90;81.50
17936;BME280;9093;52.062;4.508;2022-12-20T04:46:04;101337.38;;;10.89;81.22
17936;BME280;9093;52.062;4.508;2022-12-20T04:48:45;101321.34;;;10.89;81.66
17936;BME280;9093;52.062;4.508;2022-12-20T04:51:27;101322.38;;;10.86;81.68
17936;BME280;9093;52.062;4.508;2022-12-20T04:54:07;101317.09;;;10.85;81.67
17936;BME280;9093;52.062;4.508;2022-12-20T04:56:47;101308.22;;;10.84;81.82
17936;BME280;9093;52.062;4.508;2022-12-20T04:59:28;101322.50;;;10.83;81.74
17936;BME280;9093;52.062;4.508;2022-12-20T05:02:08;101318.03;;;10.84;81.82
17936;BME280;9093;52.062;4.508;2022-12-20T05:04:48;101314.41;;;10.85;81.77
17936;BME280;9093;52.062;4.508;2022-12-20T05:07:28;101311.69;;;10.86;81.77
17936;BME280;9093;52.062;4.508;2022-12-20T05:10:09;101300.13;;;10.86;81.81
17936;BME280;9093;52.062;4.508;2022-12-20T05:12:50;101304.44;;;10.88;82.06
17936;BME280;9093;52.062;4.508;2022-12-20T05:15:30;101300.78;;;10.91;82.21
17936;BME280;9093;52.062;4.508;2022-12-20T05:18:10;101300.72;;;10.93;81.96
17936;BME280;9093;52.062;4.508;2022-12-20T05:20:54;101304.25;;;10.93;81.92
17936;BME280;9093;52.062;4.508;2022-12-20T05:23:54;101297.94;;;10.94;82.02
17936;BME280;9093;52.062;4.508;2022-12-20T05:26:53;101297.94;;;10.94;82.10
17936;BME280;9093;52.062;4.508;2022-12-20T05:29:34;101296.06;;;10.96;82.13
17936;BME280;9093;52.062;4.508;2022-12-20T05:32:14;101291.53;;;10.98;82.08
17936;BME280;9093;52.062;4.508;2022-12-20T05:34:54;101287.91;;;10.99;82.17
17936;BME280;9093;52.062;4.508;2022-12-20T05:37:34;101278.94;;;11.00;82.20
17936;BME280;9093;52.062;4.508;2022-12-20T05:40:15;101287.91;;;10.99;82.29
17936;BME280;9093;52.062;4.508;2022-12-20T05:42:56;101287.81;;;11.01;82.16
17936;BME280;9093;52.062;4.508;2022-12-20T05:45:36;101285.16;;;11.01;82.25
17936;BME280;9093;52.062;4.508;2022-12-20T05:48:20;101272.66;;;11.01;82.15
17936;BME280;9093;52.062;4.508;2022-12-20T05:51:01;101261.09;;;11.01;82.16
17936;BME280;9093;52.062;4.508;2022-12-20T05:53:41;101257.50;;;11.02;82.31
17936;BME280;9093;52.062;4.508;2022-12-20T05:56:21;101262.78;;;11.03;82.23
17936;BME280;9093;52.062;4.508;2022-12-20T05:59:02;101269.06;;;11.02;82.23
17936;BME280;9093;52.062;4.508;2022-12-20T06:01:42;101258.28;;;11.04;82.21
17936;BME280;9093;52.062;4.508;2022-12-20T06:04:22;101260.91;;;11.05;82.18
17936;BME280;9093;52.062;4.508;2022-12-20T06:07:04;101250.13;;;11.07;82.27
17936;BME280;9093;52.062;4.508;2022-12-20T06:09:44;101267.81;;;11.09;82.19
17936;BME280;9093;52.062;4.508;2022-12-20T06:12:24;101254.38;;;11.11;82.24
17936;BME280;9093;52.062;4.508;2022-12-20T06:15:05;101255.16;;;11.13;82.22
17936;BME280;9093;52.062;4.508;2022-12-20T06:17:48;101264.03;;;11.13;82.44
17936;BME280;9093;52.062;4.508;2022-12-20T06:20:28;101255.03;;;11.16;82.17
17936;BME280;9093;52.062;4.508;2022-12-20T06:23:11;101262.09;;;11.17;82.06
17936;BME280;9093;52.062;4.508;2022-12-20T06:25:52;101273.66;;;11.17;82.09
17936;BME280;9093;52.062;4.508;2022-12-20T06:28:32;101267.50;;;11.15;82.07
17936;BME280;9093;52.062;4.508;2022-12-20T06:31:12;101269.25;;;11.16;81.89
17936;BME280;9093;52.062;4.508;2022-12-20T06:33:53;101262.03;;;11.18;82.11
17936;BME280;9093;52.062;4.508;2022-12-20T06:36:33;101268.13;;;11.20;82.09
17936;BME280;9093;52.062;4.508;2022-12-20T06:39:14;101267.19;;;11.21;81.85
17936;BME280;9093;52.062;4.508;2022-12-20T06:41:54;101270.59;;;11.25;81.77
17936;BME280;9093;52.062;4.508;2022-12-20T06:44:34;101258.09;;;11.25;81.85
17936;BME280;9093;52.062;4.508;2022-12-20T06:47:15;101255.41;;;11.25;81.91
17936;BME280;9093;52.062;4.508;2022-12-20T06:49:55;101255.41;;;11.25;81.82
17936;BME280;9093;52.062;4.508;2022-12-20T06:52:35;101264.22;;;11.27;81.92
17936;BME280;9093;52.062;4.508;2022-12-20T06:55:16;101264.22;;;11.27;81.84
17936;BME280;9093;52.062;4.508;2022-12-20T06:57:56;101263.34;;;11.27;81.78
17936;BME280;9093;52.062;4.508;2022-12-20T07:00:37;101270.44;;;11.28;81.88
17936;BME280;9093;52.062;4.508;2022-12-20T07:03:17;101263.22;;;11.30;81.85
17936;BME280;9093;52.062;4.508;2022-12-20T07:05:57;101260.47;;;11.32;81.82
17936;BME280;9093;52.062;4.508;2022-12-20T07:08:38;101274.59;;;11.34;81.49
17936;BME280;9093;52.062;4.508;2022-12-20T07:11:18;101272.72;;;11.36;81.67
17936;BME280;9093;52.062;4.508;2022-12-20T07:13:58;101270.75;;;11.39;81.70
17936;BME280;9093;52.062;4.508;2022-12-20T07:16:38;101277.78;;;11.42;81.57
17936;BME280;9093;52.062;4.508;2022-12-20T07:19:22;101271.50;;;11.43;81.46
17936;BME280;9093;52.062;4.508;2022-12-20T07:22:03;101268.66;;;11.46;81.57
17936;BME280;9093;52.062;4.508;2022-12-20T07:24:44;101275.81;;;11.45;81.50
17936;BME280;9093;52.062;4.508;2022-12-20T07:27:24;101271.25;;;11.47;81.25
17936;BME280;9093;52.062;4.508;2022-12-20T07:30:05;101264.03;;;11.49;81.52
17936;BME280;9093;52.062;4.508;2022-12-20T07:32:46;101266.69;;;11.49;81.24
17936;BME280;9093;52.062;4.508;2022-12-20T07:35:27;101262.44;;;11.45;81.26
17936;BME280;9093;52.062;4.508;2022-12-20T07:38:07;101268.81;;;11.43;81.16
17936;BME280;9093;52.062;4.508;2022-12-20T07:40:47;101257.38;;;11.39;81.15
17936;BME280;9093;52.062;4.508;2022-12-20T07:43:28;101261.19;;;11.35;81.04
17936;BME280;9093;52.062;4.508;2022-12-20T07:46:14;101269.44;;;11.31;81.07
17936;BME280;9093;52.062;4.508;2022-12-20T07:48:54;101269.56;;;11.27;81.06
17936;BME280;9093;52.062;4.508;2022-12-20T07:51:38;101264.53;;;11.21;81.22
17936;BME280;9093;52.062;4.508;2022-12-20T07:54:27;101270.03;;;11.18;81.02
17936;BME280;9093;52.062;4.508;2022-12-20T07:57:14;101265.84;;;11.13;81.20
17936;BME280;9093;52.062;4.508;2022-12-20T08:00:01;101265.94;;;11.11;81.10
17936;BME280;9093;52.062;4.508;2022-12-20T08:02:48;101267.19;;;11.04;81.18
17936;BME280;9093;52.062;4.508;2022-12-20T08:05:29;101281.59;;;11.00;81.43
17936;BME280;9093;52.062;4.508;2022-12-20T08:08:10;101296.94;;;10.97;81.38
17936;BME280;9093;52.062;4.508;2022-12-20T08:10:50;101283.81;;;10.92;81.53
17936;BME280;9093;52.062;4.508;2022-12-20T08:13:31;101300.84;;;10.89;81.58
17936;BME280;9093;52.062;4.508;2022-12-20T08:16:12;101284.97;;;10.86;81.46
17936;BME280;9093;52.062;4.508;2022-12-20T08:18:52;101288.66;;;10.84;81.48
17936;BME280;9093;52.062;4.508;2022-12-20T08:21:32;101279.81;;;10.82;81.65
17936;BME280;9093;52.062;4.508;2022-12-20T08:24:13;101279.94;;;10.80;81.66
17936;BME280;9093;52.062;4.508;2022-12-20T08:26:53;101272.84;;;10.79;81.79
17936;BME280;9093;52.062;4.508;2022-12-20T08:29:33;101276.38;;;10.80;81.96
17936;BME280;9093;52.062;4.508;2022-12-20T08:32:14;101279.06;;;10.80;81.77
17936;BME280;9093;52.062;4.508;2022-12-20T08:34:55;101271.97;;;10.79;81.84
17936;BME280;9093;52.062;4.508;2022-12-20T08:37:35;101274.72;;;10.77;81.97
17936;BME280;9093;52.062;4.508;2022-12-20T08:40:15;101274.72;;;10.77;81.76
17936;BME280;9093;52.062;4.508;2022-12-20T08:42:57;101288.88;;;10.79;81.84
17936;BME280;9093;52.062;4.508;2022-12-20T08:45:37;101277.31;;;10.79;81.87
17936;BME280;9093;52.062;4.508;2022-12-20T08:48:18;101280.91;;;10.78;81.98
17936;BME280;9093;52.062;4.508;2022-12-20T08:51:04;101277.31;;;10.79;81.98
17936;BME280;9093;52.062;4.508;2022-12-20T08:53:45;101281.72;;;10.80;81.99
17936;BME280;9093;52.062;4.508;2022-12-20T08:56:25;101283.53;;;10.79;82.11
17936;BME280;9093;52.062;4.508;2022-12-20T08:59:05;101273.72;;;10.80;81.95
17936;BME280;9093;52.062;4.508;2022-12-20T09:01:45;101280.78;;;10.81;82.01
17936;BME280;9093;52.062;4.508;2022-12-20T09:04:26;101277.16;;;10.82;82.14
17936;BME280;9093;52.062;4.508;2022-12-20T09:07:06;101274.41;;;10.83;82.07
17936;BME280;9093;52.062;4.508;2022-12-20T09:09:46;101284.22;;;10.83;82.01
17936;BME280;9093;52.062;4.508;2022-12-20T09:12:27;101278.88;;;10.83;82.00
17936;BME280;9093;52.062;4.508;2022-12-20T09:15:08;101282.38;;;10.85;82.10
17936;BME280;9093;52.062;4.508;2022-12-20T09:17:51;101275.28;;;10.84;82.16
17936;BME280;9093;52.062;4.508;2022-12-20T09:20:31;101273.41;;;10.86;81.99
17936;BME280;9093;52.062;4.508;2022-12-20T09:23:12;101278.75;;;10.86;82.24
17936;BME280;9093;52.062;4.508;2022-12-20T09:25:52;101267.91;;;10.89;82.18
17936;BME280;9093;52.062;4.508;2022-12-20T09:28:33;101282.06;;;10.91;82.29
17936;BME280;9093;52.062;4.508;2022-12-20T09:31:16;101271.22;;;10.94;82.19
17936;BME280;9093;52.062;4.508;2022-12-20T09:33:58;101272.88;;;10.97;82.10
17936;BME280;9093;52.062;4.508;2022-12-20T09:36:38;101276.38;;;10.99;82.07
17936;BME280;9093;52.062;4.508;2022-12-20T09:39:18;101278.00;;;11.01;82.39
17936;BME280;9093;52.062;4.508;2022-12-20T09:41:59;101265.44;;;11.03;82.20
17936;BME280;9093;52.062;4.508;2022-12-20T09:44:40;101284.94;;;11.05;82.17
17936;BME280;9093;52.062;4.508;2022-12-20T09:47:23;101276.00;;;11.06;82.20
17936;BME280;9093;52.062;4.508;2022-12-20T09:50:05;101287.53;;;11.07;82.21
17936;BME280;9093;52.062;4.508;2022-12-20T09:53:05;101281.47;;;11.03;82.36
17936;BME280;9093;52.062;4.508;2022-12-20T09:56:02;101268.91;;;11.05;82.29
17936;BME280;9093;52.062;4.508;2022-12-20T09:59:05;101277.88;;;11.04;82.28
17936;BME280;9093;52.062;4.508;2022-12-20T10:01:47;101275.13;;;11.06;82.32
17936;BME280;9093;52.062;4.508;2022-12-20T10:04:29;101270.66;;;11.06;82.34
17936;BME280;9093;52.062;4.508;2022-12-20T10:07:40;101280.66;;;11.01;82.25
17936;BME280;9093;52.062;4.508;2022-12-20T10:10:40;101262.91;;;11.00;82.25
17936;BME280;9093;52.062;4.508;2022-12-20T10:22:38;101262.13;;;10.98;82.58
17936;BME280;9093;52.062;4.508;2022-12-20T10:25:29;101267.47;;;10.98;82.53
17936;BME280;9093;52.062;4.508;2022-12-20T10:28:12;101271.94;;;10.98;82.62
17936;BME280;9093;52.062;4.508;2022-12-20T10:31:00;101271.09;;;10.97;82.70
17936;BME280;9093;52.062;4.508;2022-12-20T10:33:42;101264.88;;;10.97;82.78
17936;BME280;9093;52.062;4.508;2022-12-20T10:36:28;101271.22;;;10.94;82.76
17936;BME280;9093;52.062;4.508;2022-12-20T10:39:09;101272.97;;;10.95;82.90
17936;BME280;9093;52.062;4.508;2022-12-20T10:41:49;101266.84;;;10.93;82.91
17936;BME280;9093;52.062;4.508;2022-12-20T10:44:31;101271.22;;;10.94;82.82
17936;BME280;9093;52.062;4.508;2022-12-20T10:47:28;101259.75;;;10.92;82.97
17936;BME280;9093;52.062;4.508;2022-12-20T10:50:16;101258.84;;;10.93;82.92
17936;BME280;9093;52.062;4.508;2022-12-20T10:53:18;101271.31;;;10.93;83.02
17936;BME280;9093;52.062;4.508;2022-12-20T10:56:15;101262.44;;;10.92;83.08
17936;BME280;9093;52.062;4.508;2022-12-20T11:01:44;101255.19;;;10.94;83.00
17936;BME280;9093;52.062;4.508;2022-12-20T11:04:32;101241.06;;;10.92;83.21
17936;BME280;9093;52.062;4.508;2022-12-20T11:07:25;101248.16;;;10.93;83.01
17936;BME280;9093;52.062;4.508;2022-12-20T11:10:17;101250.66;;;10.96;83.15
17936;BME280;9093;52.062;4.508;2022-12-20T11:12:59;101250.59;;;10.98;83.12
17936;BME280;9093;52.062;4.508;2022-12-20T11:15:47;101249.72;;;10.97;83.23
17936;BME280;9093;52.062;4.508;2022-12-20T11:18:40;101244.38;;;10.97;83.39
17936;BME280;9093;52.062;4.508;2022-12-20T11:21:43;101248.78;;;10.98;83.34
17936;BME280;9093;52.062;4.508;2022-12-20T11:31:01;101245.25;;;10.98;83.40
17936;BME280;9093;52.062;4.508;2022-12-20T11:39:53;101245.94;;;11.01;83.55
17936;BME280;9093;52.062;4.508;2022-12-20T11:45:36;101245.81;;;11.04;83.38
17936;BME280;9093;52.062;4.508;2022-12-20T11:48:29;101237.78;;;11.04;83.27
17936;BME280;9093;52.062;4.508;2022-12-20T11:51:22;101236.97;;;11.02;83.41
17936;BME280;9093;52.062;4.508;2022-12-20T11:56:51;101240.28;;;11.07;83.43
17936;BME280;9093;52.062;4.508;2022-12-20T11:59:55;101233.31;;;11.05;83.57
17936;BME280;9093;52.062;4.508;2022-12-20T12:02:58;101229.69;;;11.06;83.62
17936;BME280;9093;52.062;4.508;2022-12-20T12:05:46;101236.69;;;11.08;83.50
17936;BME280;9093;52.062;4.508;2022-12-20T12:08:33;101227.72;;;11.09;83.57
17936;BME280;9093;52.062;4.508;2022-12-20T12:11:22;101234.81;;;11.10;83.65
17936;BME280;9093;52.062;4.508;2022-12-20T12:14:04;101228.44;;;11.13;83.58
17936;BME280;9093;52.062;4.508;2022-12-20T12:16:48;101223.94;;;11.13;83.60
17936;BME280;9093;52.062;4.508;2022-12-20T12:19:31;101230.16;;;11.14;83.61
17936;BME280;9093;52.062;4.508;2022-12-20T12:22:21;101227.41;;;11.15;83.80
17936;BME280;9093;52.062;4.508;2022-12-20T12:25:08;101231.91;;;11.15;83.59
17936;BME280;9093;52.062;4.508;2022-12-20T12:27:52;101230.97;;;11.16;83.81
17936;BME280;9093;52.062;4.508;2022-12-20T12:30:38;101234.50;;;11.16;83.69
17936;BME280;9093;52.062;4.508;2022-12-20T12:33:24;101228.22;;;11.17;83.81
17936;BME280;9093;52.062;4.508;2022-12-20T12:42:01;101227.13;;;11.21;83.79
17936;BME280;9093;52.062;4.508;2022-12-20T12:47:39;101232.47;;;11.21;83.80
17936;BME280;9093;52.062;4.508;2022-12-20T12:50:31;101230.59;;;11.23;83.61
17936;BME280;9093;52.062;4.508;2022-12-20T12:53:18;101230.59;;;11.23;83.96
17936;BME280;9093;52.062;4.508;2022-12-20T13:01:54;101238.69;;;11.22;83.84
17936;BME280;9093;52.062;4.508;2022-12-20T13:13:01;101239.53;;;11.22;83.90
17936;BME280;9093;52.062;4.508;2022-12-20T13:16:04;101237.81;;;11.21;84.07
17936;BME280;9093;52.062;4.508;2022-12-20T13:19:03;101237.00;;;11.19;84.02
17936;BME280;9093;52.062;4.508;2022-12-20T13:27:33;101229.84;;;11.20;84.21
17936;BME280;9093;52.062;4.508;2022-12-20T13:32:58;101234.25;;;11.21;84.16
17936;BME280;9093;52.062;4.508;2022-12-20T13:36:02;101231.75;;;11.18;84.30
17936;BME280;9093;52.062;4.508;2022-12-20T13:38:52;101237.97;;;11.18;84.06
17936;BME280;9093;52.062;4.508;2022-12-20T13:41:39;101231.75;;;11.18;84.15
17936;BME280;9093;52.062;4.508;2022-12-20T13:44:32;101226.41;;;11.18;84.26
17936;BME280;9093;52.062;4.508;2022-12-20T13:50:22;101223.00;;;11.14;84.41
17936;BME280;9093;52.062;4.508;2022-12-20T13:53:04;101216.72;;;11.15;84.30
17936;BME280;9093;52.062;4.508;2022-12-20T13:55:45;101203.38;;;11.15;84.32
17936;BME280;9093;52.062;4.508;2022-12-20T13:58:32;101221.13;;;11.16;84.37
17936;BME280;9093;52.062;4.508;2022-12-20T14:01:18;101223.81;;;11.16;84.26
17936;BME280;9093;52.062;4.508;2022-12-20T14:04:04;101223.81;;;11.16;84.33
17936;BME280;9093;52.062;4.508;2022-12-20T14:06:57;101223.81;;;11.16;84.26
17936;BME280;9093;52.062;4.508;2022-12-20T14:09:43;101232.63;;;11.18;84.40
17936;BME280;9093;52.062;4.508;2022-12-20T14:12:24;101229.00;;;11.19;84.57
17936;BME280;9093;52.062;4.508;2022-12-20T14:15:23;101228.22;;;11.17;84.33
17936;BME280;9093;52.062;4.508;2022-12-20T14:18:05;101228.16;;;11.19;84.40
17936;BME280;9093;52.062;4.508;2022-12-20T14:21:00;101239.84;;;11.16;84.37
17936;BME280;9093;52.062;4.508;2022-12-20T14:23:49;101239.84;;;11.16;84.44
17936;BME280;9093;52.062;4.508;2022-12-20T14:26:41;101226.50;;;11.16;84.52
17936;BME280;9093;52.062;4.508;2022-12-20T14:29:28;101230.91;;;11.17;84.46
17936;BME280;9093;52.062;4.508;2022-12-20T14:32:17;101237.09;;;11.18;84.51
17936;BME280;9093;52.062;4.508;2022-12-20T14:34:58;101239.69;;;11.19;84.36
17936;BME280;9093;52.062;4.508;2022-12-20T14:37:38;101247.69;;;11.19;84.48
17936;BME280;9093;52.062;4.508;2022-12-20T14:40:21;101228.16;;;11.19;84.67
17936;BME280;9093;52.062;4.508;2022-12-20T14:43:13;101220.19;;;11.17;84.54
17936;BME280;9093;52.062;4.508;2022-12-20T14:49:17;101219.41;;;11.15;84.58
17936;BME280;9093;52.062;4.508;2022-12-20T14:52:15;101211.38;;;11.15;84.50
17936;BME280;9093;52.062;4.508;2022-12-20T14:55:00;101214.00;;;11.17;84.65
17936;BME280;9093;52.062;4.508;2022-12-20T14:57:47;101215.00;;;11.14;84.64
17936;BME280;9093;52.062;4.508;2022-12-20T15:00:31;101216.72;;;11.15;84.64
17936;BME280;9093;52.062;4.508;2022-12-20T15:03:22;101216.72;;;11.15;84.54
17936;BME280;9093;52.062;4.508;2022-12-20T15:06:03;101232.78;;;11.15;84.60
17936;BME280;9093;52.062;4.508;2022-12-20T15:08:44;101229.28;;;11.13;84.65
17936;BME280;9093;52.062;4.508;2022-12-20T15:11:24;101222.16;;;11.14;84.72
17936;BME280;9093;52.062;4.508;2022-12-20T15:14:35;101214.38;;;11.09;84.61
17936;BME280;9093;52.062;4.508;2022-12-20T15:17:19;101222.25;;;11.12;84.65
17936;BME280;9093;52.062;4.508;2022-12-20T15:19:59;101222.31;;;11.11;84.58
17936;BME280;9093;52.062;4.508;2022-12-20T15:22:40;101227.72;;;11.09;84.74
17936;BME280;9093;52.062;4.508;2022-12-20T15:25:20;101218.78;;;11.10;84.74
17936;BME280;9093;52.062;4.508;2022-12-20T15:28:00;101226.00;;;11.08;84.71
17936;BME280;9093;52.062;4.508;2022-12-20T15:30:41;101226.00;;;11.08;84.81
17936;BME280;9093;52.062;4.508;2022-12-20T15:33:26;101233.16;;;11.08;84.79
17936;BME280;9093;52.062;4.508;2022-12-20T15:36:15;101226.16;;;11.05;84.79
17936;BME280;9093;52.062;4.508;2022-12-20T15:38:57;101219.09;;;11.04;84.86
17936;BME280;9093;52.062;4.508;2022-12-20T15:41:43;101231.50;;;11.05;84.83
17936;BME280;9093;52.062;4.508;2022-12-20T15:44:26;101235.13;;;11.04;84.97
17936;BME280;9093;52.062;4.508;2022-12-20T15:47:14;101230.06;;;10.98;84.84
17936;BME280;9093;52.062;4.508;2022-12-20T15:49:55;101231.81;;;10.99;84.82